Time,TemperatureF,DewpointF,PressureIn,WindDirection,WindDirectionDegrees,WindSpeedMPH,WindSpeedGustMPH,Humidity,HourlyPrecipIn,Conditions,Clouds,dailyrainin,SoftwareType,DateUTC
2013-06-15 00:02:00,80.0,73.0,29.93,WSW,256,1.0,2.0,79,0.00,,,0.00,,2013-06-15 04:02:00,
2013-06-15 00:12:00,80.0,73.0,29.93,WSW,245,1.0,3.0,80,0.00,,,0.00,,2013-06-15 04:12:00,
2013-06-15 00:22:00,80.0,73.0,29.93,WSW,245,1.0,3.0,80,0.00,,,0.00,,2013-06-15 04:22:00,
2013-06-15 00:34:00,79.0,73.0,29.93,WSW,245,1.0,3.0,82,0.00,,,0.00,,2013-06-15 04:34:00,
2013-06-15 00:43:00,78.0,73.0,29.92,SSW,212,0.0,2.0,84,0.00,,,0.00,,2013-06-15 04:43:00,
2013-06-15 00:53:00,78.0,73.0,29.92,SSW,212,0.0,2.0,84,0.00,,,0.00,,2013-06-15 04:53:00,
2013-06-15 01:02:00,78.0,73.0,29.93,WSW,246,2.0,4.0,85,0.00,,,0.00,,2013-06-15 05:02:00,
2013-06-15 01:12:00,78.0,73.0,29.93,WSW,240,2.0,6.0,85,0.00,,,0.00,,2013-06-15 05:12:00,
2013-06-15 01:22:00,78.0,73.0,29.93,WSW,240,2.0,6.0,85,0.00,,,0.00,,2013-06-15 05:22:00,
2013-06-15 01:34:00,78.0,73.0,29.93,West,260,2.0,5.0,84,0.00,,,0.00,,2013-06-15 05:34:00,
2013-06-15 01:43:00,78.0,73.0,29.92,WSW,252,3.0,5.0,85,0.00,,,0.00,,2013-06-15 05:43:00,
2013-06-15 01:52:00,78.0,73.0,29.92,WSW,252,3.0,5.0,85,0.00,,,0.00,,2013-06-15 05:52:00,
2013-06-15 02:02:00,77.0,72.0,29.93,WSW,243,2.0,5.0,85,0.00,,,0.00,,2013-06-15 06:02:00,
2013-06-15 02:12:00,77.0,72.0,29.93,WSW,243,2.0,5.0,85,0.00,,,0.00,,2013-06-15 06:12:00,
2013-06-15 02:24:00,77.0,73.0,29.93,West,269,1.0,3.0,87,0.00,,,0.00,,2013-06-15 06:24:00,
2013-06-15 02:33:00,76.0,72.0,29.93,West,273,2.0,4.0,88,0.00,,,0.00,,2013-06-15 06:33:00,
2013-06-15 02:43:00,76.0,73.0,29.92,WNW,282,3.0,6.0,89,0.00,,,0.00,,2013-06-15 06:43:00,
2013-06-15 02:53:00,76.0,73.0,29.92,WNW,282,3.0,6.0,89,0.00,,,0.00,,2013-06-15 06:53:00,
2013-06-15 03:01:00,76.0,73.0,29.91,WSW,255,2.0,5.0,90,0.00,,,0.00,,2013-06-15 07:01:00,
2013-06-15 03:11:00,76.0,73.0,29.91,WSW,255,2.0,5.0,90,0.00,,,0.00,,2013-06-15 07:11:00,
2013-06-15 03:23:00,75.0,72.0,29.91,WSW,242,1.0,4.0,90,0.00,,,0.00,,2013-06-15 07:23:00,
2013-06-15 03:33:00,75.0,72.0,29.92,WSW,250,0.0,2.0,91,0.00,,,0.00,,2013-06-15 07:33:00,
2013-06-15 03:43:00,75.0,73.0,29.92,WSW,242,0.0,2.0,92,0.00,,,0.00,,2013-06-15 07:43:00,
2013-06-15 03:53:00,75.0,73.0,29.92,WSW,242,0.0,2.0,92,0.00,,,0.00,,2013-06-15 07:53:00,
2013-06-15 04:02:00,74.0,72.0,29.92,SW,219,0.0,1.0,93,0.00,,,0.00,,2013-06-15 08:02:00,
2013-06-15 04:11:00,74.0,72.0,29.93,West,260,1.0,2.0,93,0.00,,,0.00,,2013-06-15 08:11:00,
2013-06-15 04:22:00,74.0,72.0,29.93,West,260,1.0,2.0,93,0.00,,,0.00,,2013-06-15 08:22:00,
2013-06-15 04:33:00,74.0,72.0,29.93,West,259,0.0,1.0,94,0.00,,,0.00,,2013-06-15 08:33:00,
2013-06-15 04:43:00,73.0,71.0,29.93,West,266,0.0,1.0,94,0.00,,,0.00,,2013-06-15 08:43:00,
2013-06-15 04:53:00,73.0,71.0,29.93,West,266,0.0,1.0,94,0.00,,,0.00,,2013-06-15 08:53:00,
2013-06-15 05:02:00,73.0,71.0,29.93,WSW,253,0.0,2.0,95,0.00,,,0.00,,2013-06-15 09:02:00,
2013-06-15 05:12:00,73.0,71.0,29.94,WSW,257,0.0,2.0,95,0.00,,,0.00,,2013-06-15 09:12:00,
2013-06-15 05:22:00,73.0,71.0,29.94,WSW,257,0.0,2.0,95,0.00,,,0.00,,2013-06-15 09:22:00,
2013-06-15 07:12:00,73.0,72.0,29.98,WSW,257,0.0,1.0,97,0.00,,,0.00,,2013-06-15 11:12:00,
2013-06-15 07:22:00,73.0,72.0,29.98,WSW,257,0.0,1.0,97,0.00,,,0.00,,2013-06-15 11:22:00,
2013-06-15 07:33:00,73.0,72.0,29.98,WSW,243,1.0,2.0,97,0.00,,,0.00,,2013-06-15 11:33:00,
2013-06-15 07:43:00,73.0,72.0,29.98,WSW,243,1.0,2.0,97,0.00,,,0.00,,2013-06-15 11:43:00,
2013-06-15 07:53:00,74.0,73.0,29.98,WSW,253,1.0,2.0,96,0.00,,,0.00,,2013-06-15 11:53:00,
2013-06-15 08:02:00,75.0,73.0,29.98,West,266,2.0,3.0,95,0.00,,,0.00,,2013-06-15 12:02:00,
2013-06-15 08:12:00,75.0,73.0,29.98,West,266,2.0,3.0,95,0.00,,,0.00,,2013-06-15 12:12:00,
2013-06-15 08:22:00,76.0,74.0,29.98,WSW,252,2.0,4.0,94,0.00,,,0.00,,2013-06-15 12:22:00,
2013-06-15 08:33:00,77.0,74.0,29.98,West,278,1.0,3.0,92,0.00,,,0.00,,2013-06-15 12:33:00,
2013-06-15 08:43:00,79.0,76.0,29.99,West,274,2.0,5.0,90,0.00,,,0.00,,2013-06-15 12:43:00,
2013-06-15 08:52:00,79.0,76.0,29.99,West,274,2.0,5.0,90,0.00,,,0.00,,2013-06-15 12:52:00,
2013-06-15 09:02:00,79.0,75.0,29.99,SW,235,2.0,5.0,89,0.00,,,0.00,,2013-06-15 13:02:00,
2013-06-15 09:11:00,80.0,75.0,30.00,West,278,2.0,5.0,86,0.00,,,0.00,,2013-06-15 13:11:00,
2013-06-15 09:22:00,80.0,75.0,30.00,West,278,2.0,5.0,86,0.00,,,0.00,,2013-06-15 13:22:00,
2013-06-15 09:32:00,81.0,76.0,30.00,West,270,4.0,7.0,85,0.00,,,0.00,,2013-06-15 13:32:00,
2013-06-15 09:43:00,82.0,76.0,30.00,West,281,3.0,6.0,83,0.00,,,0.00,,2013-06-15 13:43:00,
2013-06-15 09:53:00,82.0,76.0,30.00,West,281,3.0,6.0,83,0.00,,,0.00,,2013-06-15 13:53:00,
2013-06-15 10:02:00,83.0,77.0,30.01,WNW,288,2.0,6.0,82,0.00,,,0.00,,2013-06-15 14:02:00,
2013-06-15 10:12:00,83.0,77.0,30.01,WNW,288,2.0,6.0,82,0.00,,,0.00,,2013-06-15 14:12:00,
2013-06-15 10:22:00,85.0,77.0,30.01,North,354,0.0,3.0,77,0.00,,,0.00,,2013-06-15 14:22:00,
2013-06-15 10:34:00,85.0,76.0,30.01,ENE,72,2.0,5.0,75,0.00,,,0.00,,2013-06-15 14:34:00,
2013-06-15 10:43:00,85.0,76.0,30.01,WNW,293,1.0,5.0,75,0.00,,,0.00,,2013-06-15 14:43:00,
2013-06-15 10:53:00,85.0,76.0,30.01,WNW,293,1.0,5.0,75,0.00,,,0.00,,2013-06-15 14:53:00,
2013-06-15 11:02:00,86.0,76.0,30.01,North,5,0.0,4.0,72,0.00,,,0.00,,2013-06-15 15:02:00,
2013-06-15 11:11:00,86.0,75.0,30.01,NE,50,3.0,8.0,69,0.00,,,0.00,,2013-06-15 15:11:00,
2013-06-15 11:22:00,86.0,75.0,30.01,NE,50,3.0,8.0,69,0.00,,,0.00,,2013-06-15 15:22:00,
2013-06-15 11:33:00,86.0,75.0,30.01,SE,141,2.0,7.0,70,0.00,,,0.00,,2013-06-15 15:33:00,
2013-06-15 11:43:00,86.0,74.0,30.02,ESE,104,5.0,7.0,68,0.00,,,0.00,,2013-06-15 15:43:00,
2013-06-15 11:53:00,86.0,74.0,30.02,ESE,104,5.0,7.0,68,0.00,,,0.00,,2013-06-15 15:53:00,
2013-06-15 12:01:00,85.0,76.0,30.02,NNE,33,6.0,11.0,74,0.00,,,0.00,,2013-06-15 16:01:00,
2013-06-15 12:11:00,85.0,76.0,30.02,NE,43,5.0,11.0,74,0.00,,,0.00,,2013-06-15 16:11:00,
2013-06-15 12:22:00,85.0,76.0,30.02,NE,43,5.0,11.0,74,0.00,,,0.00,,2013-06-15 16:22:00,
2013-06-15 12:33:00,86.0,76.0,30.02,East,90,4.0,8.0,73,0.00,,,0.00,,2013-06-15 16:33:00,
2013-06-15 12:43:00,86.0,76.0,30.01,East,89,5.0,8.0,72,0.00,,,0.00,,2013-06-15 16:43:00,
2013-06-15 12:53:00,86.0,76.0,30.01,East,89,5.0,8.0,72,0.00,,,0.00,,2013-06-15 16:53:00,
2013-06-15 13:02:00,86.0,76.0,30.01,ENE,57,5.0,8.0,72,0.00,,,0.00,,2013-06-15 17:02:00,
2013-06-15 13:12:00,85.0,76.0,30.02,ENE,65,3.0,8.0,74,0.00,,,0.00,,2013-06-15 17:12:00,
2013-06-15 13:22:00,85.0,76.0,30.02,ENE,65,3.0,8.0,74,0.00,,,0.00,,2013-06-15 17:22:00,
2013-06-15 13:32:00,86.0,76.0,30.02,NE,53,4.0,9.0,73,0.00,,,0.00,,2013-06-15 17:32:00,
2013-06-15 13:43:00,86.0,77.0,30.01,ENE,58,5.0,11.0,75,0.00,,,0.00,,2013-06-15 17:43:00,
2013-06-15 13:52:00,86.0,77.0,30.01,ENE,58,5.0,11.0,75,0.00,,,0.00,,2013-06-15 17:52:00,
2013-06-15 14:01:00,85.0,76.0,30.01,East,98,5.0,9.0,75,0.00,,,0.00,,2013-06-15 18:01:00,
2013-06-15 14:12:00,85.0,76.0,30.01,NE,50,6.0,10.0,75,0.00,,,0.00,,2013-06-15 18:12:00,
2013-06-15 14:22:00,85.0,76.0,30.01,NE,50,6.0,10.0,75,0.00,,,0.00,,2013-06-15 18:22:00,
2013-06-15 14:32:00,85.0,76.0,30.01,NE,55,6.0,12.0,75,0.00,,,0.00,,2013-06-15 18:32:00,
2013-06-15 14:43:00,85.0,77.0,30.00,ENE,78,4.0,8.0,76,0.00,,,0.00,,2013-06-15 18:43:00,
2013-06-15 14:53:00,85.0,77.0,30.00,ENE,78,4.0,8.0,76,0.00,,,0.00,,2013-06-15 18:53:00,
2013-06-15 15:02:00,86.0,78.0,30.00,NE,44,4.0,9.0,76,0.00,,,0.00,,2013-06-15 19:02:00,
2013-06-15 15:12:00,84.0,76.0,29.99,ENE,61,7.0,12.0,78,0.00,,,0.00,,2013-06-15 19:12:00,
2013-06-15 15:22:00,84.0,76.0,29.99,ENE,61,7.0,12.0,78,0.00,,,0.00,,2013-06-15 19:22:00,
2013-06-15 15:33:00,85.0,77.0,29.99,ENE,74,6.0,9.0,76,0.00,,,0.00,,2013-06-15 19:33:00,
2013-06-15 15:43:00,85.0,77.0,29.99,ENE,72,4.0,10.0,78,0.00,,,0.00,,2013-06-15 19:43:00,
2013-06-15 15:52:00,85.0,77.0,29.99,ENE,72,4.0,10.0,78,0.00,,,0.00,,2013-06-15 19:52:00,
2013-06-15 16:02:00,84.0,76.0,29.99,ENE,65,5.0,11.0,78,0.00,,,0.00,,2013-06-15 20:02:00,
2013-06-15 16:11:00,84.0,77.0,29.99,ENE,70,7.0,11.0,80,0.00,,,0.00,,2013-06-15 20:11:00,
2013-06-15 16:22:00,84.0,77.0,29.99,ENE,70,7.0,11.0,80,0.00,,,0.00,,2013-06-15 20:22:00,
2013-06-15 16:33:00,84.0,77.0,29.99,North,356,7.0,13.0,79,0.00,,,0.00,,2013-06-15 20:33:00,
2013-06-15 16:43:00,85.0,78.0,29.99,NE,34,7.0,15.0,80,0.00,,,0.00,,2013-06-15 20:43:00,
2013-06-15 16:53:00,85.0,78.0,29.99,NE,34,7.0,15.0,80,0.00,,,0.00,,2013-06-15 20:53:00,
2013-06-15 17:02:00,85.0,78.0,29.99,NE,56,6.0,13.0,80,0.00,,,0.00,,2013-06-15 21:02:00,
2013-06-15 17:12:00,85.0,78.0,29.99,ENE,57,5.0,14.0,79,0.00,,,0.00,,2013-06-15 21:12:00,
2013-06-15 17:22:00,85.0,78.0,29.99,ENE,57,5.0,14.0,79,0.00,,,0.00,,2013-06-15 21:22:00,
2013-06-15 17:34:00,84.0,77.0,29.99,NNE,22,7.0,15.0,80,0.00,,,0.00,,2013-06-15 21:34:00,
2013-06-15 17:42:00,84.0,78.0,29.99,ENE,77,6.0,13.0,82,0.00,,,0.00,,2013-06-15 21:42:00,
2013-06-15 17:52:00,84.0,78.0,29.99,ENE,77,6.0,13.0,82,0.00,,,0.00,,2013-06-15 21:52:00,
2013-06-15 18:01:00,83.0,77.0,30.00,ENE,61,9.0,14.0,82,0.00,,,0.00,,2013-06-15 22:01:00,
2013-06-15 18:11:00,83.0,77.0,29.99,NE,40,9.0,17.0,82,0.00,,,0.00,,2013-06-15 22:11:00,
2013-06-15 18:22:00,83.0,77.0,29.99,NE,40,9.0,17.0,82,0.00,,,0.00,,2013-06-15 22:22:00,
2013-06-15 18:33:00,83.0,77.0,29.99,NE,48,4.0,15.0,82,0.00,,,0.00,,2013-06-15 22:33:00,
2013-06-15 18:43:00,83.0,77.0,29.99,East,79,5.0,12.0,83,0.00,,,0.00,,2013-06-15 22:43:00,
2013-06-15 18:53:00,83.0,77.0,29.99,East,79,5.0,12.0,83,0.00,,,0.00,,2013-06-15 22:53:00,
2013-06-15 19:02:00,82.0,77.0,30.00,East,86,5.0,15.0,85,0.00,,,0.00,,2013-06-15 23:02:00,
2013-06-15 19:12:00,81.0,76.0,29.99,ENE,61,6.0,12.0,85,0.00,,,0.00,,2013-06-15 23:12:00,
2013-06-15 19:22:00,81.0,76.0,29.99,ENE,61,6.0,12.0,85,0.00,,,0.00,,2013-06-15 23:22:00,
2013-06-15 19:33:00,81.0,76.0,29.99,ENE,71,6.0,11.0,84,0.00,,,0.00,,2013-06-15 23:33:00,
2013-06-15 19:42:00,81.0,76.0,30.00,East,84,6.0,10.0,85,0.00,,,0.00,,2013-06-15 23:42:00,
2013-06-15 19:53:00,81.0,76.0,30.00,East,84,6.0,10.0,85,0.00,,,0.00,,2013-06-15 23:53:00,
2013-06-15 20:02:00,81.0,76.0,30.01,East,81,3.0,10.0,85,0.00,,,0.00,,2013-06-16 00:02:00,
2013-06-15 20:11:00,81.0,76.0,30.01,ENE,64,2.0,9.0,86,0.00,,,0.00,,2013-06-16 00:11:00,
2013-06-15 20:22:00,81.0,76.0,30.01,ENE,64,2.0,9.0,86,0.00,,,0.00,,2013-06-16 00:22:00,
2013-06-15 20:34:00,80.0,76.0,30.02,NE,43,5.0,11.0,87,0.00,,,0.00,,2013-06-16 00:34:00,
2013-06-15 20:43:00,80.0,76.0,30.02,ENE,72,5.0,9.0,87,0.00,,,0.00,,2013-06-16 00:43:00,
2013-06-15 20:52:00,80.0,76.0,30.02,ENE,72,5.0,9.0,87,0.00,,,0.00,,2013-06-16 00:52:00,
2013-06-15 21:01:00,80.0,76.0,30.02,East,79,2.0,7.0,88,0.00,,,0.00,,2013-06-16 01:01:00,
2013-06-15 21:12:00,80.0,76.0,30.02,East,98,5.0,10.0,87,0.00,,,0.00,,2013-06-16 01:12:00,
2013-06-15 21:22:00,80.0,76.0,30.02,East,98,5.0,10.0,87,0.00,,,0.00,,2013-06-16 01:22:00,
2013-06-15 21:33:00,80.0,76.0,30.03,NE,34,5.0,11.0,87,0.00,,,0.00,,2013-06-16 01:33:00,
2013-06-15 21:42:00,80.0,76.0,30.03,East,86,3.0,9.0,87,0.00,,,0.00,,2013-06-16 01:42:00,
2013-06-15 21:53:00,80.0,76.0,30.03,East,86,3.0,9.0,87,0.00,,,0.00,,2013-06-16 01:53:00,
2013-06-15 22:02:00,80.0,76.0,30.03,East,84,4.0,10.0,87,0.00,,,0.00,,2013-06-16 02:02:00,
2013-06-15 22:12:00,80.0,76.0,30.04,East,79,5.0,8.0,87,0.00,,,0.00,,2013-06-16 02:12:00,
2013-06-15 22:22:00,80.0,76.0,30.04,East,79,5.0,8.0,87,0.00,,,0.00,,2013-06-16 02:22:00,
2013-06-15 22:33:00,80.0,75.0,30.04,ENE,67,4.0,9.0,86,0.00,,,0.00,,2013-06-16 02:33:00,
2013-06-15 22:43:00,80.0,75.0,30.05,NE,56,3.0,9.0,86,0.00,,,0.00,,2013-06-16 02:43:00,
2013-06-15 22:53:00,80.0,75.0,30.05,NE,56,3.0,9.0,86,0.00,,,0.00,,2013-06-16 02:53:00,
2013-06-15 23:02:00,80.0,76.0,30.04,ESE,109,4.0,10.0,87,0.00,,,0.00,,2013-06-16 03:02:00,
2013-06-15 23:12:00,80.0,76.0,30.04,ENE,73,3.0,8.0,87,0.00,,,0.00,,2013-06-16 03:12:00,
2013-06-15 23:22:00,80.0,76.0,30.04,ENE,73,3.0,8.0,87,0.00,,,0.00,,2013-06-16 03:22:00,
2013-06-15 23:34:00,80.0,76.0,30.05,ESE,104,3.0,9.0,87,0.00,,,0.00,,2013-06-16 03:34:00,
2013-06-15 23:43:00,80.0,75.0,30.05,East,99,3.0,8.0,86,0.00,,,0.00,,2013-06-16 03:43:00,
2013-06-15 23:53:00,80.0,75.0,30.05,East,99,3.0,8.0,86,0.00,,,0.00,,2013-06-16 03:53:00,